Time;durP1;ratioP1;P1;durP2;ratioP2;P2;SDS_P1;SDS_P2;PMS_P1;PMS_P2;Temp;Humidity;BMP_temperature;BMP_pressure;BME280_temperature;BME280_humidity;BME280_pressure;Samples;Min_cycle;Max_cycle;Signal;HPM_P1;HPM_P2
2023/09/05 00:02:24;;;;;;;11.40;2.60;;;;;;;16.05;85.83;101424.53;110166;1270;22847;-59
2023/09/05 00:04:58;;;;;;;17.50;3.20;;;;;;;16.01;86.17;101424.52;110168;1278;22229;-59
2023/09/05 00:07:29;;;;;;;11.90;3.00;;;;;;;15.96;85.96;101421.83;110182;1277;22203;-59
2023/09/05 00:10:00;;;;;;;8.70;2.80;;;;;;;15.88;85.74;101413.87;110161;1278;22801;-58
2023/09/05 00:12:32;;;;;;;9.10;2.80;;;;;;;15.82;85.85;101414.39;110148;1274;22140;-59
2023/09/05 00:15:04;;;;;;;8.40;2.80;;;;;;;15.76;85.77;101414.09;110164;1277;22435;-58
2023/09/05 00:17:36;;;;;;;11.80;2.80;;;;;;;15.69;85.87;101412.48;110154;1278;22355;-59
2023/09/05 00:20:09;;;;;;;11.50;2.70;;;;;;;15.64;86.10;101414.17;110152;1278;22209;-59
2023/09/05 00:22:39;;;;;;;7.30;2.20;;;;;;;15.58;85.98;101414.89;110165;1275;22395;-59
2023/09/05 00:25:11;;;;;;;9.50;2.60;;;;;;;15.50;85.88;101415.16;110161;1278;22242;-59
2023/09/05 00:27:43;;;;;;;12.00;2.50;;;;;;;15.41;85.98;101417.86;110179;1277;22201;-59
2023/09/05 00:30:14;;;;;;;10.90;2.80;;;;;;;15.34;86.03;101420.70;110147;1278;23532;-59
2023/09/05 00:32:46;;;;;;;10.70;2.30;;;;;;;15.28;86.09;101420.02;110145;1275;22291;-59
2023/09/05 00:35:17;;;;;;;12.80;3.30;;;;;;;15.21;86.06;101426.89;110173;1272;23013;-59
2023/09/05 00:37:48;;;;;;;7.80;2.10;;;;;;;15.17;86.89;101429.52;110193;1278;22961;-59
2023/09/05 00:40:19;;;;;;;9.60;2.20;;;;;;;15.14;86.98;101430.22;110206;1275;22281;-59
2023/09/05 00:42:50;;;;;;;7.50;2.00;;;;;;;15.10;86.67;101424.02;110165;1278;22228;-59
2023/09/05 00:45:22;;;;;;;7.70;2.20;;;;;;;15.05;86.33;101426.17;110208;1275;22220;-58
2023/09/05 00:47:53;;;;;;;7.30;1.60;;;;;;;14.99;86.34;101422.42;110187;1270;23296;-59
2023/09/05 00:50:24;;;;;;;8.70;1.90;;;;;;;14.93;86.50;101417.59;110149;1278;22144;-59
2023/09/05 00:52:55;;;;;;;7.70;2.70;;;;;;;14.89;86.34;101413.78;110192;1272;22979;-58
2023/09/05 00:55:26;;;;;;;7.80;2.30;;;;;;;14.84;86.56;101412.20;110195;1275;22322;-59
2023/09/05 00:58:00;;;;;;;7.50;2.00;;;;;;;14.78;86.91;101410.75;110169;1277;23304;-60
2023/09/05 01:00:31;;;;;;;8.00;2.50;;;;;;;14.73;86.82;101409.58;110180;1278;22136;-60
2023/09/05 01:03:02;;;;;;;10.90;2.40;;;;;;;14.69;86.83;101400.64;110184;1275;22276;-59
2023/09/05 01:05:37;;;;;;;7.30;2.50;;;;;;;14.65;86.81;101396.88;110177;1278;22352;-59
2023/09/05 01:08:13;;;;;;;9.40;2.00;;;;;;;14.61;86.81;101391.54;110166;1274;22145;-59
2023/09/05 01:10:49;;;;;;;8.40;2.10;;;;;;;14.58;86.60;101388.81;110175;1275;22243;-59
2023/09/05 01:13:25;;;;;;;9.90;2.30;;;;;;;14.53;86.56;101390.19;110188;1275;22910;-59
2023/09/05 01:15:57;;;;;;;9.40;2.50;;;;;;;14.50;86.95;101389.56;110196;1275;22315;-59
2023/09/05 01:18:28;;;;;;;10.20;3.30;;;;;;;14.48;86.89;101388.97;110161;1275;22227;-59
2023/09/05 01:21:13;;;;;;;14.20;3.70;;;;;;;14.47;87.09;101389.70;110200;1278;22189;-58
2023/09/05 01:23:51;;;;;;;12.80;3.80;;;;;;;14.44;87.23;101391.93;110203;1272;22244;-59
2023/09/05 01:26:22;;;;;;;18.60;4.50;;;;;;;14.40;87.45;101384.98;110193;1275;22904;-59
2023/09/05 01:28:54;;;;;;;13.60;4.00;;;;;;;14.37;87.37;101386.90;110190;1275;22188;-59
2023/09/05 01:31:26;;;;;;;12.50;3.10;;;;;;;14.35;87.58;101388.31;110176;1278;22949;-60
2023/09/05 01:33:56;;;;;;;14.00;3.10;;;;;;;14.31;87.88;101386.73;110186;1277;22253;-59
2023/09/05 01:36:27;;;;;;;9.40;2.50;;;;;;;14.27;87.88;101385.88;110192;1267;22310;-59
2023/09/05 01:38:58;;;;;;;11.00;2.90;;;;;;;14.23;88.13;101376.21;110176;1278;22298;-59
2023/09/05 01:41:29;;;;;;;9.60;2.70;;;;;;;14.19;88.23;101381.05;110128;1278;22154;-58
2023/09/05 01:44:00;;;;;;;9.00;2.90;;;;;;;14.16;88.21;101380.00;110166;1275;23385;-59
2023/09/05 01:46:30;;;;;;;9.20;2.80;;;;;;;14.13;87.96;101376.25;110153;1278;22158;-59
2023/09/05 01:49:02;;;;;;;10.60;2.70;;;;;;;14.08;87.96;101382.16;110186;1278;22297;-60
2023/09/05 01:51:32;;;;;;;9.60;2.90;;;;;;;14.03;88.07;101384.66;110197;1278;22159;-59
2023/09/05 01:54:03;;;;;;;9.30;2.10;;;;;;;13.99;88.12;101384.40;110176;1274;23515;-61
2023/09/05 01:56:35;;;;;;;9.50;2.60;;;;;;;13.93;88.36;101390.35;110171;1278;23015;-60
2023/09/05 02:04:42;;;;;;;8.50;2.50;;;;;;;13.84;88.77;101398.65;97085;1268;957251;-78
2023/09/05 02:07:13;;;;;;;9.90;3.10;;;;;;;13.78;88.44;101392.27;107065;1276;22546;-78
2023/09/05 02:09:43;;;;;;;8.00;2.10;;;;;;;13.71;88.78;101399.41;107899;1283;22548;-79
2023/09/05 02:12:14;;;;;;;8.20;2.00;;;;;;;13.66;88.50;101391.27;107336;1277;22494;-79
2023/09/05 02:14:47;;;;;;;7.70;2.50;;;;;;;13.60;88.28;101389.59;107221;1283;22578;-79
2023/09/05 02:17:20;;;;;;;8.00;2.50;;;;;;;13.55;88.35;101390.27;107275;1284;22546;-79
2023/09/05 02:19:51;;;;;;;7.90;2.30;;;;;;;13.49;88.31;101392.28;107348;1284;25217;-79
2023/09/05 02:22:22;;;;;;;8.10;2.40;;;;;;;13.45;88.24;101393.59;107343;1284;22693;-79
2023/09/05 02:24:53;;;;;;;9.90;2.90;;;;;;;13.42;88.33;101393.73;107310;1280;26539;-79
2023/09/05 02:27:23;;;;;;;8.70;2.80;;;;;;;13.38;88.37;101392.71;107268;1284;22610;-79
2023/09/05 02:30:01;;;;;;;11.50;3.00;;;;;;;13.34;88.58;101390.76;107403;1284;24208;-79
2023/09/05 02:32:31;;;;;;;9.30;2.60;;;;;;;13.30;88.70;101389.02;109832;1277;22168;-79
2023/09/05 02:35:02;;;;;;;9.50;2.90;;;;;;;13.27;88.83;101391.17;109832;1280;22936;-79
2023/09/05 02:37:33;;;;;;;10.60;3.00;;;;;;;13.23;88.95;101398.12;109816;1284;22349;-79
2023/09/05 02:40:07;;;;;;;14.00;2.90;;;;;;;13.22;88.92;101396.04;109834;1284;22181;-79
2023/09/05 02:42:38;;;;;;;10.30;2.80;;;;;;;13.21;88.86;101389.13;109861;1284;22336;-79
2023/09/05 02:45:10;;;;;;;18.60;3.80;;;;;;;13.19;88.87;101391.16;109836;1277;23284;-79
2023/09/05 02:47:41;;;;;;;11.70;2.60;;;;;;;13.16;89.17;101388.38;109838;1284;22297;-79
2023/09/05 02:50:12;;;;;;;9.50;3.10;;;;;;;13.14;89.32;101386.09;109847;1280;22388;-79
2023/09/05 02:52:43;;;;;;;12.70;3.90;;;;;;;13.12;89.39;101385.18;109845;1277;22197;-79
2023/09/05 02:55:14;;;;;;;9.10;2.50;;;;;;;13.10;89.30;101381.79;109801;1277;22235;-80
2023/09/05 02:57:44;;;;;;;10.50;2.80;;;;;;;13.07;89.26;101380.05;109817;1284;23262;-80
2023/09/05 03:00:19;;;;;;;10.40;2.90;;;;;;;13.04;89.37;101380.11;109802;1284;22362;-79
2023/09/05 03:02:52;;;;;;;7.70;2.70;;;;;;;13.01;89.50;101380.05;109830;1284;22431;-79
2023/09/05 03:05:23;;;;;;;6.60;2.40;;;;;;;12.99;89.70;101378.94;109777;1283;22178;-80
2023/09/05 03:07:55;;;;;;;9.30;2.40;;;;;;;12.97;89.73;101381.98;109809;1284;22169;-80
2023/09/05 03:10:26;;;;;;;9.10;2.50;;;;;;;12.96;89.48;101380.38;109780;1284;22166;-79
2023/09/05 03:12:57;;;;;;;10.30;2.50;;;;;;;12.95;89.85;101387.13;109787;1283;22167;-79
2023/09/05 03:15:28;;;;;;;11.10;2.50;;;;;;;12.94;89.49;101382.46;109824;1276;22267;-79
2023/09/05 03:17:58;;;;;;;8.80;2.20;;;;;;;12.90;89.70;101381.35;109792;1284;22137;-79
2023/09/05 03:20:29;;;;;;;7.80;1.80;;;;;;;12.87;89.65;101382.61;109791;1283;22938;-79
2023/09/05 03:23:00;;;;;;;8.00;1.70;;;;;;;12.82;89.67;101384.33;109812;1277;22172;-79
2023/09/05 03:25:31;;;;;;;8.40;2.00;;;;;;;12.80;89.57;101387.41;109781;1284;23049;-79
2023/09/05 03:28:03;;;;;;;8.30;2.30;;;;;;;12.77;89.66;101389.86;109821;1283;22164;-79
2023/09/05 03:30:33;;;;;;;6.20;1.90;;;;;;;12.74;89.68;101389.44;109824;1271;22638;-79
2023/09/05 03:33:05;;;;;;;9.90;2.20;;;;;;;12.73;89.79;101391.96;109836;1280;22284;-79
2023/09/05 03:35:36;;;;;;;8.10;2.20;;;;;;;12.71;89.85;101390.17;109824;1277;22192;-79
2023/09/05 03:38:07;;;;;;;6.20;1.90;;;;;;;12.71;89.96;101389.55;109809;1284;22206;-79
2023/09/05 03:40:39;;;;;;;11.70;3.00;;;;;;;12.69;90.14;101385.08;109833;1273;22169;-79
2023/09/05 03:43:10;;;;;;;7.60;1.70;;;;;;;12.67;90.29;101389.17;109804;1283;22935;-79
2023/09/05 03:45:41;;;;;;;11.00;2.90;;;;;;;12.64;90.20;101392.47;109796;1284;22311;-79
2023/09/05 03:48:11;;;;;;;8.10;2.20;;;;;;;12.63;90.26;101392.45;109793;1284;22144;-79
2023/09/05 03:50:42;;;;;;;10.50;2.90;;;;;;;12.61;90.33;101388.66;109829;1276;22313;-79
2023/09/05 03:53:13;;;;;;;11.10;2.90;;;;;;;12.59;90.56;101388.23;109844;1280;22318;-80
2023/09/05 03:55:45;;;;;;;14.50;3.90;;;;;;;12.57;90.25;101385.95;109806;1284;22148;-80
2023/09/05 03:58:17;;;;;;;15.20;4.40;;;;;;;12.54;90.26;101384.61;109847;1277;22209;-80
2023/09/05 04:00:48;;;;;;;14.70;4.20;;;;;;;12.52;90.55;101389.33;109815;1284;22266;-80
2023/09/05 04:03:18;;;;;;;14.00;4.10;;;;;;;12.51;90.54;101388.88;109806;1277;22887;-80
2023/09/05 04:05:49;;;;;;;15.20;3.90;;;;;;;12.50;90.59;101393.58;109776;1277;22183;-79
2023/09/05 04:08:20;;;;;;;12.00;3.20;;;;;;;12.49;90.44;101397.56;109791;1278;22288;-79
2023/09/05 04:10:56;;;;;;;13.80;4.10;;;;;;;12.48;90.48;101398.08;109759;1284;22783;-79
2023/09/05 04:13:27;;;;;;;18.20;4.30;;;;;;;12.46;90.72;101400.73;109813;1276;22323;-79
2023/09/05 04:16:04;;;;;;;10.20;3.50;;;;;;;12.45;90.83;101395.38;109811;1277;22458;-79
2023/09/05 04:18:35;;;;;;;12.80;3.00;;;;;;;12.44;90.88;101393.05;109820;1283;23011;-79
2023/09/05 04:21:06;;;;;;;12.40;2.90;;;;;;;12.43;91.10;101387.06;109793;1273;22885;-80
2023/09/05 04:23:37;;;;;;;12.10;3.10;;;;;;;12.43;90.92;101387.48;109793;1284;22163;-80
2023/09/05 04:26:10;;;;;;;10.50;2.80;;;;;;;12.43;91.02;101387.67;109815;1284;23003;-81
2023/09/05 04:28:41;;;;;;;9.40;2.70;;;;;;;12.42;91.20;101383.11;109806;1277;22342;-80
2023/09/05 04:31:18;;;;;;;12.60;3.50;;;;;;;12.44;91.50;101384.98;109729;1276;22362;-81
2023/09/05 04:33:50;;;;;;;19.10;4.00;;;;;;;12.44;91.57;101384.02;109731;1283;23003;-78
2023/09/05 04:36:22;;;;;;;12.30;3.30;;;;;;;12.45;91.86;101383.09;109780;1284;22150;-78
2023/09/05 04:38:54;;;;;;;14.10;5.20;;;;;;;12.46;91.91;101384.30;107690;1284;22584;-78
2023/09/05 04:41:27;;;;;;;18.60;5.60;;;;;;;12.49;91.99;101384.33;107036;1284;22648;-75
2023/09/05 04:43:58;;;;;;;15.60;4.60;;;;;;;12.51;92.31;101385.77;107117;1277;22553;-76
2023/09/05 04:46:37;;;;;;;16.80;4.20;;;;;;;12.52;92.50;101381.33;108659;1277;23378;-78
2023/09/05 04:49:10;;;;;;;13.20;3.50;;;;;;;12.55;92.67;101387.63;108504;1280;25012;-76
2023/09/05 04:51:40;;;;;;;17.40;3.50;;;;;;;12.57;92.97;101386.00;107080;1278;23349;-75
2023/09/05 04:54:11;;;;;;;15.10;3.80;;;;;;;12.59;93.06;101390.80;106894;1284;24195;-76
2023/09/05 04:56:42;;;;;;;15.60;3.90;;;;;;;12.62;93.39;101393.32;106896;1277;25322;-77
2023/09/05 04:59:13;;;;;;;11.20;4.00;;;;;;;12.64;93.61;101391.38;106805;1277;22598;-77
2023/09/05 05:01:44;;;;;;;16.70;4.60;;;;;;;12.67;93.60;101394.63;106856;1281;23299;-77
2023/09/05 05:04:14;;;;;;;16.70;4.90;;;;;;;12.70;93.92;101397.19;106799;1278;22527;-77
2023/09/05 05:06:47;;;;;;;12.80;4.10;;;;;;;12.73;93.89;101394.25;106773;1284;26610;-77
2023/09/05 05:09:18;;;;;;;13.60;5.30;;;;;;;12.77;94.08;101393.20;106829;1284;24061;-78
2023/09/05 05:11:49;;;;;;;14.20;4.60;;;;;;;12.82;94.07;101399.16;106905;1284;22672;-77
2023/09/05 05:14:20;;;;;;;16.80;6.10;;;;;;;12.86;94.35;101397.03;106873;1277;22588;-80
2023/09/05 05:16:51;;;;;;;12.80;4.80;;;;;;;12.92;94.90;101398.66;106821;1277;25216;-78
2023/09/05 05:19:22;;;;;;;15.30;4.40;;;;;;;12.97;94.78;101400.48;106858;1284;22578;-77
2023/09/05 05:21:55;;;;;;;14.30;5.00;;;;;;;13.03;94.95;101398.57;106884;1283;23267;-78
2023/09/05 05:24:26;;;;;;;17.10;4.80;;;;;;;13.08;95.05;101400.52;109793;1271;22313;-78
2023/09/05 05:26:57;;;;;;;16.80;4.80;;;;;;;13.14;95.23;101407.39;109821;1277;22178;-78
2023/09/05 05:29:32;;;;;;;14.20;5.30;;;;;;;13.19;95.48;101402.12;109815;1284;22416;-78
2023/09/05 05:32:03;;;;;;;17.30;6.20;;;;;;;13.25;95.52;101396.84;109794;1277;22221;-79
2023/09/05 05:34:33;;;;;;;17.20;5.80;;;;;;;13.33;95.74;101397.31;109791;1283;23378;-78
2023/09/05 05:37:04;;;;;;;23.30;7.50;;;;;;;13.40;96.00;101401.84;109781;1277;22928;-77
2023/09/05 05:39:36;;;;;;;19.80;7.70;;;;;;;13.47;96.09;101403.79;109755;1280;22414;-78
2023/09/05 05:42:07;;;;;;;20.30;5.90;;;;;;;13.54;96.39;101409.38;109759;1278;23551;-78
2023/09/05 05:44:38;;;;;;;17.20;6.80;;;;;;;13.61;96.48;101411.05;109680;1277;22702;-77
2023/09/05 05:47:09;;;;;;;16.80;6.50;;;;;;;13.70;96.56;101413.20;109776;1284;22916;-78
2023/09/05 05:49:39;;;;;;;18.90;7.40;;;;;;;13.79;96.74;101414.70;109760;1284;22404;-78
2023/09/05 05:52:11;;;;;;;20.80;7.50;;;;;;;13.87;96.94;101421.22;109720;1284;22925;-78
2023/09/05 05:54:42;;;;;;;15.80;7.60;;;;;;;13.94;97.07;101422.57;109795;1284;22321;-77
2023/09/05 05:57:13;;;;;;;19.70;8.80;;;;;;;14.03;96.90;101422.78;109755;1281;22412;-78
2023/09/05 05:59:43;;;;;;;21.80;7.80;;;;;;;14.11;97.27;101421.23;109750;1278;23409;-78
2023/09/05 06:02:15;;;;;;;17.20;7.30;;;;;;;14.20;97.56;101420.54;109694;1277;22194;-77
2023/09/05 06:04:46;;;;;;;18.70;7.80;;;;;;;14.30;98.29;101416.30;109775;1284;22157;-78
2023/09/05 06:07:17;;;;;;;18.30;8.10;;;;;;;14.39;98.00;101411.55;109745;1284;22957;-77
2023/09/05 06:09:48;;;;;;;17.70;8.10;;;;;;;14.47;98.07;101413.16;109746;1283;23017;-78
2023/09/05 06:12:18;;;;;;;20.90;8.40;;;;;;;14.55;98.27;101409.75;109753;1284;22204;-78
2023/09/05 06:14:49;;;;;;;23.50;8.60;;;;;;;14.65;98.34;101410.63;109780;1284;22182;-78
2023/09/05 06:17:20;;;;;;;18.90;8.40;;;;;;;14.74;98.40;101416.73;109817;1284;22138;-78
2023/09/05 06:19:51;;;;;;;17.40;7.20;;;;;;;14.82;98.29;101415.43;109783;1284;22231;-79
2023/09/05 06:22:21;;;;;;;27.00;9.10;;;;;;;14.90;98.18;101417.09;109785;1284;22175;-77
2023/09/05 06:24:52;;;;;;;20.10;7.30;;;;;;;15.00;98.05;101413.91;109803;1284;22179;-77
2023/09/05 06:27:23;;;;;;;17.10;7.50;;;;;;;15.08;98.02;101415.34;109817;1284;22353;-78
2023/09/05 06:29:54;;;;;;;16.20;7.10;;;;;;;15.16;97.97;101412.27;109793;1284;22157;-78
2023/09/05 06:32:24;;;;;;;27.90;12.30;;;;;;;15.24;97.76;101410.97;109770;1284;22230;-78
2023/09/05 06:34:55;;;;;;;22.90;8.80;;;;;;;15.32;97.62;101412.77;109773;1284;22219;-77
2023/09/05 06:37:28;;;;;;;22.40;7.20;;;;;;;15.40;97.62;101412.25;109820;1284;23412;-78
2023/09/05 06:39:59;;;;;;;23.00;6.90;;;;;;;15.49;97.61;101412.55;109795;1284;22170;-78
2023/09/05 06:42:30;;;;;;;17.60;6.80;;;;;;;15.56;97.52;101408.52;109701;1284;23159;-78
2023/09/05 06:45:01;;;;;;;17.70;6.90;;;;;;;15.65;97.77;101406.58;109801;1283;23160;-78
2023/09/05 06:47:31;;;;;;;21.40;6.40;;;;;;;15.73;97.48;101402.60;109805;1273;22357;-78
2023/09/05 06:50:04;;;;;;;17.80;5.40;;;;;;;15.81;97.13;101401.77;109804;1284;22162;-78
2023/09/05 06:52:35;;;;;;;18.10;6.10;;;;;;;15.87;96.65;101397.77;109798;1284;22297;-78
2023/09/05 06:55:08;;;;;;;18.90;5.60;;;;;;;15.94;96.54;101400.70;109766;1284;22187;-79
2023/09/05 06:57:39;;;;;;;16.30;6.40;;;;;;;16.02;96.61;101402.98;109781;1283;22979;-78
2023/09/05 07:00:11;;;;;;;15.40;6.00;;;;;;;16.10;96.61;101402.96;109798;1284;22214;-78
2023/09/05 07:02:42;;;;;;;28.30;7.20;;;;;;;16.19;96.50;101404.16;109799;1283;22353;-78
2023/09/05 07:05:13;;;;;;;16.40;6.60;;;;;;;16.27;96.59;101403.75;109792;1284;22199;-78
2023/09/05 07:07:44;;;;;;;17.20;6.00;;;;;;;16.36;96.74;101401.98;109815;1277;22706;-79
2023/09/05 07:10:15;;;;;;;16.20;6.10;;;;;;;16.45;96.60;101402.06;109800;1284;22188;-78
2023/09/05 07:12:45;;;;;;;15.40;6.30;;;;;;;16.53;96.30;101401.33;109777;1283;22435;-78
2023/09/05 07:15:16;;;;;;;14.10;6.30;;;;;;;16.61;96.49;101396.26;109764;1283;23013;-78
2023/09/05 07:17:47;;;;;;;22.00;7.30;;;;;;;16.70;96.23;101398.21;109847;1283;22831;-78
2023/09/05 07:20:18;;;;;;;14.90;5.50;;;;;;;16.76;95.93;101394.84;109777;1284;22994;-78
2023/09/05 07:22:49;;;;;;;18.50;6.70;;;;;;;16.84;95.86;101397.88;109790;1283;23287;-78
2023/09/05 07:25:19;;;;;;;17.60;6.10;;;;;;;16.93;95.49;101395.52;109798;1284;22232;-77
2023/09/05 07:27:50;;;;;;;17.20;6.10;;;;;;;16.98;94.61;101394.86;109822;1284;22871;-78
2023/09/05 07:30:21;;;;;;;17.20;4.80;;;;;;;17.06;94.12;101401.31;109805;1284;22151;-78
2023/09/05 07:32:52;;;;;;;15.90;4.80;;;;;;;17.15;93.82;101399.98;109787;1284;22190;-79
2023/09/05 07:35:23;;;;;;;14.90;4.50;;;;;;;17.23;93.26;101402.11;109808;1283;22194;-78
2023/09/05 07:37:53;;;;;;;13.10;4.40;;;;;;;17.34;93.01;101401.29;109787;1284;22262;-78
2023/09/05 07:40:26;;;;;;;15.60;4.30;;;;;;;17.43;92.55;101402.16;109767;1284;22129;-78
2023/09/05 07:42:57;;;;;;;13.10;3.60;;;;;;;17.55;92.37;101404.14;109793;1284;22659;-79
2023/09/05 07:45:27;;;;;;;11.70;3.70;;;;;;;17.70;91.99;101410.23;109772;1284;22374;-78
2023/09/05 07:47:58;;;;;;;14.80;2.70;;;;;;;17.79;91.08;101411.84;109812;1284;22867;-78
2023/09/05 07:50:29;;;;;;;12.90;3.20;;;;;;;17.89;90.53;101406.95;109805;1284;22971;-78
2023/09/05 07:53:00;;;;;;;13.90;3.00;;;;;;;17.98;90.01;101411.89;109813;1284;22970;-79
2023/09/05 07:55:31;;;;;;;12.70;2.30;;;;;;;18.05;89.36;101403.73;109754;1284;22504;-78
2023/09/05 07:58:02;;;;;;;10.20;2.50;;;;;;;18.14;89.01;101405.95;109801;1280;22235;-77
2023/09/05 08:00:34;;;;;;;9.60;2.30;;;;;;;18.22;87.90;101405.02;109810;1284;22148;-77
2023/09/05 08:03:05;;;;;;;11.50;1.90;;;;;;;18.30;87.34;101402.48;109799;1284;22109;-76
2023/09/05 08:05:39;;;;;;;6.70;1.80;;;;;;;18.39;86.63;101402.51;109769;1284;22970;-78
2023/09/05 08:08:09;;;;;;;12.80;2.30;;;;;;;18.48;86.31;101403.86;109814;1284;22143;-78
2023/09/05 08:10:42;;;;;;;13.10;2.20;;;;;;;18.57;85.75;101398.40;109846;1280;22422;-78
2023/09/05 08:13:14;;;;;;;12.90;2.80;;;;;;;18.65;85.64;101404.61;109793;1284;22197;-79
2023/09/05 08:15:45;;;;;;;7.50;2.40;;;;;;;18.72;85.48;101404.28;109778;1284;22558;-77
2023/09/05 08:18:16;;;;;;;10.60;2.20;;;;;;;18.80;84.98;101403.48;109783;1280;23317;-78
2023/09/05 08:20:47;;;;;;;8.80;2.10;;;;;;;18.88;83.83;101401.47;109801;1268;22281;-79
2023/09/05 08:23:18;;;;;;;7.50;2.00;;;;;;;18.92;84.01;101401.64;109787;1284;22150;-79
2023/09/05 08:25:51;;;;;;;7.50;2.00;;;;;;;19.03;83.65;101400.13;109780;1284;22150;-78
2023/09/05 08:28:22;;;;;;;11.30;2.20;;;;;;;19.10;83.25;101404.42;109822;1280;22324;-78
2023/09/05 08:30:59;;;;;;;8.90;2.10;;;;;;;19.21;82.68;101406.56;109813;1284;22147;-78
2023/09/05 08:33:29;;;;;;;10.70;2.20;;;;;;;19.33;81.66;101401.59;109830;1280;23121;-78
2023/09/05 08:36:00;;;;;;;9.10;1.60;;;;;;;19.43;81.03;101398.95;109827;1283;22328;-78
2023/09/05 08:38:31;;;;;;;9.50;1.90;;;;;;;19.51;80.74;101402.98;109931;1278;22216;-78
2023/09/05 08:41:03;;;;;;;11.20;1.80;;;;;;;19.59;80.40;101394.96;109870;1274;22151;-79
2023/09/05 08:43:34;;;;;;;7.60;1.80;;;;;;;19.66;79.50;101398.45;109822;1284;23069;-78
2023/09/05 08:46:07;;;;;;;8.70;1.50;;;;;;;19.70;78.88;101392.13;109821;1280;22199;-79
2023/09/05 08:48:38;;;;;;;10.40;1.80;;;;;;;19.72;78.10;101393.42;109803;1284;23411;-78
2023/09/05 08:51:13;;;;;;;12.70;1.90;;;;;;;19.77;78.38;101394.34;109786;1284;22203;-76
2023/09/05 08:53:52;;;;;;;9.40;1.60;;;;;;;19.83;77.46;101392.27;109752;1283;22293;-78
2023/09/05 08:56:23;;;;;;;16.20;1.90;;;;;;;19.88;76.69;101388.10;109717;1284;22516;-80
2023/09/05 08:58:56;;;;;;;7.60;1.50;;;;;;;19.94;76.25;101384.90;109809;1284;22875;-79
2023/09/05 09:01:29;;;;;;;4.70;1.20;;;;;;;19.99;75.70;101388.14;109803;1273;22265;-78
2023/09/05 09:04:01;;;;;;;10.90;1.60;;;;;;;20.05;75.49;101386.53;109767;1284;22184;-78
2023/09/05 09:06:33;;;;;;;4.60;1.20;;;;;;;20.11;74.69;101387.92;109783;1282;22186;-78
2023/09/05 09:09:04;;;;;;;6.90;1.50;;;;;;;20.18;74.09;101387.59;109808;1284;22191;-78
2023/09/05 09:11:35;;;;;;;6.60;1.30;;;;;;;20.26;73.34;101393.85;109802;1284;22119;-78
2023/09/05 09:14:05;;;;;;;5.60;1.10;;;;;;;20.30;72.25;101386.77;109800;1284;22926;-78
2023/09/05 09:16:45;;;;;;;6.90;1.10;;;;;;;20.36;71.80;101388.00;109801;1277;22166;-79
2023/09/05 09:19:16;;;;;;;9.50;1.20;;;;;;;20.41;71.77;101384.06;109806;1284;22962;-80
2023/09/05 09:21:48;;;;;;;5.60;1.20;;;;;;;20.47;71.43;101377.80;109794;1281;22354;-78
2023/09/05 09:24:20;;;;;;;6.70;1.50;;;;;;;20.50;71.18;101375.36;109813;1280;22143;-78
2023/09/05 09:26:53;;;;;;;5.00;1.70;;;;;;;20.53;70.99;101369.63;109790;1284;22180;-78
2023/09/05 09:29:23;;;;;;;8.60;1.80;;;;;;;20.56;70.40;101367.04;109837;1280;22219;-78
2023/09/05 09:32:03;;;;;;;7.70;1.50;;;;;;;20.65;70.41;101365.46;109800;1283;22804;-78
2023/09/05 09:34:35;;;;;;;5.00;1.20;;;;;;;20.72;69.66;101364.54;109741;1281;22217;-78
2023/09/05 09:37:06;;;;;;;9.00;1.20;;;;;;;20.81;69.17;101368.02;109784;1280;22219;-79
2023/09/05 09:39:37;;;;;;;8.00;1.80;;;;;;;20.86;68.31;101366.38;109809;1284;22308;-80
2023/09/05 09:42:08;;;;;;;6.50;1.00;;;;;;;20.88;67.85;101369.47;109812;1284;22192;-77
2023/09/05 09:44:39;;;;;;;5.80;1.20;;;;;;;20.90;67.65;101369.56;109772;1277;22368;-79
2023/09/05 09:47:10;;;;;;;7.00;1.00;;;;;;;20.92;67.22;101369.75;109796;1284;23181;-79
2023/09/05 09:49:46;;;;;;;4.30;1.30;;;;;;;21.00;67.05;101363.99;109801;1284;22799;-79
2023/09/05 09:52:19;;;;;;;6.40;1.10;;;;;;;21.04;66.04;101359.14;109791;1284;22241;-79
2023/09/05 09:54:54;;;;;;;5.10;0.90;;;;;;;21.05;65.79;101351.39;109798;1284;22215;-78
2023/09/05 09:57:30;;;;;;;6.80;1.20;;;;;;;21.07;65.73;101348.38;109788;1274;22189;-79
2023/09/05 10:00:07;;;;;;;6.50;1.60;;;;;;;21.10;65.81;101346.51;109813;1283;22146;-79
2023/09/05 10:02:42;;;;;;;6.10;1.40;;;;;;;21.15;65.48;101346.63;109798;1283;22183;-79
2023/09/05 10:05:19;;;;;;;7.70;1.30;;;;;;;21.25;65.56;101341.55;109774;1283;22167;-78
2023/09/05 10:07:52;;;;;;;9.30;1.30;;;;;;;21.32;65.13;101337.58;109647;1283;229710;-79
2023/09/05 10:10:25;;;;;;;6.50;1.00;;;;;;;21.36;63.19;101345.13;109738;1284;22130;-79
2023/09/05 10:12:57;;;;;;;6.70;1.20;;;;;;;21.40;63.36;101344.73;109824;1278;22188;-79
2023/09/05 10:15:30;;;;;;;12.10;2.40;;;;;;;21.43;62.99;101344.77;109768;1284;22325;-78
2023/09/05 10:18:02;;;;;;;8.00;1.50;;;;;;;21.43;62.58;101341.00;109769;1284;22250;-80
2023/09/05 10:20:35;;;;;;;7.70;2.00;;;;;;;21.46;62.53;101338.95;109808;1284;22346;-80
2023/09/05 10:23:06;;;;;;;5.90;1.20;;;;;;;21.53;62.89;101334.98;109803;1279;22175;-80
2023/09/05 10:25:39;;;;;;;5.80;1.30;;;;;;;21.58;62.06;101337.20;109792;1280;22244;-81
2023/09/05 10:28:10;;;;;;;6.80;1.60;;;;;;;21.62;61.78;101339.45;109789;1280;22845;-80
2023/09/05 10:30:49;;;;;;;9.80;1.30;;;;;;;21.67;61.78;101334.44;109811;1278;22218;-80
2023/09/05 10:33:34;;;;;;;7.20;1.50;;;;;;;21.70;61.60;101335.33;109804;1284;22135;-79
2023/09/05 10:36:06;;;;;;;15.10;1.70;;;;;;;21.72;61.54;101328.35;109796;1284;22874;-80
2023/09/05 10:38:37;;;;;;;11.90;1.50;;;;;;;21.73;61.40;101328.85;109807;1284;22926;-79
2023/09/05 10:41:37;;;;;;;10.30;1.80;;;;;;;21.76;61.49;101327.90;109799;1268;22341;-80
2023/09/05 10:44:08;;;;;;;6.70;1.20;;;;;;;21.82;60.89;101328.70;109785;1284;23074;-80
2023/09/05 10:46:44;;;;;;;7.20;1.40;;;;;;;21.86;61.07;101335.42;109792;1284;22284;-80
2023/09/05 10:49:16;;;;;;;8.60;1.40;;;;;;;21.90;60.85;101326.70;109801;1284;22961;-80
2023/09/05 10:52:18;;;;;;;6.50;1.40;;;;;;;21.95;60.49;101323.56;109813;1284;22174;-80
2023/09/05 10:54:49;;;;;;;8.60;1.70;;;;;;;21.98;60.32;101321.60;109196;1289;22282;-80
2023/09/05 10:57:40;;;;;;;8.20;1.50;;;;;;;22.03;60.48;101321.29;109296;1291;23219;-80
2023/09/05 11:00:37;;;;;;;4.90;1.20;;;;;;;22.08;60.26;101321.80;109272;1286;23093;-80
2023/09/05 11:03:13;;;;;;;7.30;1.30;;;;;;;22.08;59.39;101319.69;109304;1291;22207;-80
2023/09/05 11:05:45;;;;;;;7.10;1.30;;;;;;;22.06;59.13;101322.60;109322;1290;22227;-80
2023/09/05 11:08:22;;;;;;;4.30;1.20;;;;;;;22.08;59.36;101317.26;109370;1290;22206;-80
2023/09/05 11:10:55;;;;;;;6.80;1.40;;;;;;;22.12;59.37;101315.40;109340;1290;22178;-80
2023/09/05 11:13:26;;;;;;;9.70;1.60;;;;;;;22.16;58.72;101309.20;109355;1290;23037;-79
2023/09/05 11:16:02;;;;;;;8.50;1.80;;;;;;;22.21;59.18;101311.77;109295;1290;22394;-79
2023/09/05 11:18:43;;;;;;;6.30;1.30;;;;;;;22.26;59.00;101309.13;109351;1290;22353;-80
2023/09/05 11:21:22;;;;;;;8.60;1.40;;;;;;;22.31;59.03;101309.95;109339;1284;22238;-81
2023/09/05 11:23:54;;;;;;;8.00;1.60;;;;;;;22.35;58.54;101303.75;109315;1290;22202;-80
2023/09/05 11:26:25;;;;;;;7.40;1.70;;;;;;;22.36;58.10;101298.52;109326;1290;22249;-80
2023/09/05 11:28:56;;;;;;;6.40;2.00;;;;;;;22.37;57.86;101296.13;109330;1290;22219;-80
2023/09/05 11:31:30;;;;;;;9.60;1.50;;;;;;;22.42;58.14;101293.94;109400;1284;22192;-80
2023/09/05 11:34:01;;;;;;;6.50;1.50;;;;;;;22.44;57.67;101293.70;109816;1284;22159;-80
2023/09/05 11:36:33;;;;;;;7.80;1.30;;;;;;;22.43;57.29;101290.50;109816;1280;22192;-80
2023/09/05 11:39:06;;;;;;;6.90;1.60;;;;;;;22.44;58.07;101282.02;109791;1284;22182;-80
2023/09/05 11:41:41;;;;;;;6.60;1.80;;;;;;;22.49;58.27;101275.79;109809;1280;22335;-80